Time;durP1;ratioP1;P1;durP2;ratioP2;P2;SDS_P1;SDS_P2;PMS_P1;PMS_P2;Temp;Humidity;BMP_temperature;BMP_pressure;BME280_temperature;BME280_humidity;BME280_pressure;Samples;Min_cycle;Max_cycle;Signal;HPM_P1;HPM_P2
2021/03/28 00:02:34;;;;;;;68.57;25.23;;;3.40;99.90;;;;;;5054336;28;20037;-75
2021/03/28 00:05:14;;;;;;;35.38;20.02;;;3.40;99.90;;;;;;5054542;28;20483;-74
2021/03/28 00:07:43;;;;;;;39.80;22.05;;;3.30;99.90;;;;;;5054536;28;20029;-74
2021/03/28 00:10:37;;;;;;;43.55;22.48;;;3.30;99.90;;;;;;5054334;28;20029;-74
2021/03/28 00:13:14;;;;;;;31.20;17.70;;;3.30;99.90;;;;;;5050344;28;20122;-74
2021/03/28 00:15:59;;;;;;;35.03;18.25;;;3.20;99.90;;;;;;5054298;28;20029;-75
2021/03/28 00:18:30;;;;;;;26.65;16.45;;;3.10;99.90;;;;;;5054298;28;20025;-74
2021/03/28 00:21:09;;;;;;;23.48;14.63;;;3.10;99.90;;;;;;5054260;28;20532;-75
2021/03/28 00:23:45;;;;;;;32.03;18.30;;;3.00;99.90;;;;;;5052810;28;20394;-74
2021/03/28 00:26:31;;;;;;;26.13;15.63;;;3.00;99.90;;;;;;5053106;28;20036;-75
2021/03/28 00:29:12;;;;;;;25.77;14.20;;;2.90;99.90;;;;;;5054037;28;20032;-75
2021/03/28 00:31:56;;;;;;;19.17;11.93;;;2.90;99.90;;;;;;5054028;28;20017;-74
2021/03/28 00:34:37;;;;;;;50.53;24.52;;;2.90;99.90;;;;;;5052456;28;20035;-74
2021/03/28 00:37:09;;;;;;;48.88;22.13;;;2.80;99.90;;;;;;5054007;28;20432;-75
2021/03/28 00:39:53;;;;;;;19.98;12.07;;;2.80;99.90;;;;;;5052619;28;20367;-75
2021/03/28 00:42:41;;;;;;;16.60;8.90;;;2.70;99.90;;;;;;5052537;28;20029;-74
2021/03/28 00:45:28;;;;;;;16.05;9.38;;;2.60;99.90;;;;;;5052952;28;20045;-74
2021/03/28 00:48:16;;;;;;;15.88;9.13;;;2.50;99.90;;;;;;5053867;28;20463;-74
2021/03/28 00:50:48;;;;;;;19.48;10.55;;;2.50;99.90;;;;;;5053654;28;20055;-74
2021/03/28 00:53:33;;;;;;;34.30;14.73;;;2.40;99.90;;;;;;5053481;28;20067;-73
2021/03/28 00:56:37;;;;;;;45.72;21.17;;;2.40;99.90;;;;;;5053523;28;20013;-76
2021/03/28 00:59:07;;;;;;;30.77;15.75;;;2.40;99.90;;;;;;5051360;28;20017;-75
2021/03/28 01:01:38;;;;;;;33.10;12.55;;;2.40;99.90;;;;;;5052144;28;20104;-75
2021/03/28 01:04:42;;;;;;;29.05;13.07;;;2.30;99.90;;;;;;5053019;28;20020;-75
2021/03/28 01:07:32;;;;;;;27.10;14.82;;;2.30;99.90;;;;;;5051629;28;20032;-76
2021/03/28 01:10:16;;;;;;;30.45;17.00;;;2.30;99.90;;;;;;5051378;28;20044;-76
2021/03/28 01:12:56;;;;;;;20.52;12.95;;;2.30;99.90;;;;;;5053405;28;20024;-75
2021/03/28 01:15:59;;;;;;;23.42;13.23;;;2.20;99.90;;;;;;5053045;28;20044;-75
2021/03/28 01:18:27;;;;;;;24.00;11.23;;;2.20;99.90;;;;;;5053151;28;20032;-75
2021/03/28 01:21:20;;;;;;;24.48;12.75;;;2.20;99.90;;;;;;5053091;28;20025;-75
2021/03/28 01:24:00;;;;;;;19.08;11.00;;;2.20;99.90;;;;;;5053132;28;20028;-75
2021/03/28 01:26:50;;;;;;;20.83;10.25;;;2.10;99.90;;;;;;5051775;28;20028;-75
2021/03/28 01:29:32;;;;;;;22.35;11.43;;;2.10;99.90;;;;;;5051237;28;20029;-75
2021/03/28 01:32:03;;;;;;;17.57;11.57;;;2.10;99.90;;;;;;5050923;28;20029;-76
2021/03/28 01:34:47;;;;;;;18.55;11.77;;;2.10;99.90;;;;;;5052875;28;20033;-75
2021/03/28 01:37:22;;;;;;;23.25;12.02;;;2.10;99.90;;;;;;5051576;28;20482;-76
2021/03/28 01:39:50;;;;;;;25.23;14.93;;;2.20;99.90;;;;;;5051651;28;20032;-75
2021/03/28 01:42:34;;;;;;;20.85;11.25;;;2.10;99.90;;;;;;5051602;28;20025;-76
2021/03/28 01:45:09;;;;;;;15.85;10.63;;;2.10;99.90;;;;;;5052625;28;20025;-77
2021/03/28 01:47:48;;;;;;;18.08;11.15;;;2.20;99.90;;;;;;5052835;28;20021;-75
2021/03/28 01:50:19;;;;;;;18.45;10.60;;;2.20;99.90;;;;;;5051441;28;20063;-75
2021/03/28 01:53:17;;;;;;;19.27;12.32;;;2.20;99.90;;;;;;5051444;28;20021;-75
2021/03/28 01:55:45;;;;;;;26.90;12.55;;;2.20;99.90;;;;;;5054648;28;20029;-75
2021/03/28 01:58:35;;;;;;;21.77;12.32;;;2.20;99.90;;;;;;5058043;28;20112;-75
2021/03/28 02:01:09;;;;;;;22.98;12.57;;;2.20;99.90;;;;;;5057939;28;20021;-75
2021/03/28 02:03:43;;;;;;;25.63;13.50;;;2.10;99.90;;;;;;5059335;28;20074;-75
2021/03/28 02:06:43;;;;;;;22.33;12.30;;;2.00;99.90;;;;;;5057912;28;20021;-75
2021/03/28 02:09:27;;;;;;;21.33;11.65;;;2.00;99.90;;;;;;5059239;28;20063;-74
2021/03/28 02:12:07;;;;;;;18.38;10.57;;;1.80;99.90;;;;;;5059303;28;20023;-75
2021/03/28 02:14:51;;;;;;;17.40;10.90;;;1.80;99.90;;;;;;5058991;28;20040;-75
2021/03/28 02:17:29;;;;;;;21.67;11.60;;;1.80;99.90;;;;;;5057887;28;20025;-75
2021/03/28 02:20:07;;;;;;;20.83;11.15;;;1.80;99.90;;;;;;5057811;28;20017;-75
2021/03/28 02:22:47;;;;;;;18.60;10.63;;;1.90;99.90;;;;;;5059208;28;20466;-74
2021/03/28 02:25:18;;;;;;;16.35;11.35;;;2.00;99.90;;;;;;5058997;28;20048;-75
2021/03/28 02:27:56;;;;;;;21.83;10.07;;;2.00;99.90;;;;;;5059107;28;20025;-75
2021/03/28 02:30:29;;;;;;;21.50;11.23;;;2.00;99.90;;;;;;5057756;28;20017;-74
2021/03/28 02:33:09;;;;;;;16.52;10.45;;;2.00;99.90;;;;;;5059121;28;20025;-75
2021/03/28 02:36:00;;;;;;;20.60;10.00;;;2.00;99.90;;;;;;5058940;28;20029;-75
2021/03/28 02:38:51;;;;;;;17.85;9.93;;;2.10;99.90;;;;;;5059047;28;20394;-75
2021/03/28 02:41:35;;;;;;;18.55;10.68;;;2.10;99.90;;;;;;5057599;28;20086;-74
2021/03/28 02:44:37;;;;;;;17.75;10.13;;;2.10;99.90;;;;;;5057717;28;20051;-75
2021/03/28 02:47:03;;;;;;;18.70;11.93;;;2.00;99.90;;;;;;5056390;28;20531;-75
2021/03/28 02:49:56;;;;;;;20.63;10.43;;;2.00;99.90;;;;;;5057707;28;20040;-75
2021/03/28 02:52:27;;;;;;;21.92;10.35;;;2.00;99.90;;;;;;5057606;28;20483;-74
2021/03/28 02:55:31;;;;;;;17.10;9.40;;;2.00;99.90;;;;;;5057466;28;20041;-74
2021/03/28 02:58:35;;;;;;;28.20;12.25;;;1.90;99.90;;;;;;5054319;28;20033;-74
2021/03/28 03:01:39;;;;;;;15.60;8.85;;;1.90;99.90;;;;;;5037695;28;20083;-74
2021/03/28 03:04:29;;;;;;;14.00;7.45;;;1.90;99.90;;;;;;5034706;28;20513;-74
2021/03/28 03:07:07;;;;;;;16.98;7.22;;;1.90;99.90;;;;;;5036477;28;20502;-74
2021/03/28 03:09:57;;;;;;;18.63;8.80;;;1.90;99.90;;;;;;5035664;28;20093;-75
2021/03/28 03:12:39;;;;;;;18.73;8.18;;;2.00;99.90;;;;;;5034305;28;20057;-75
2021/03/28 03:15:17;;;;;;;14.40;6.75;;;2.00;99.90;;;;;;5035450;28;20030;-75
2021/03/28 03:18:34;;;;;;;22.73;7.70;;;2.00;99.90;;;;;;5035492;28;20391;-75
2021/03/28 03:21:15;;;;;;;13.13;7.45;;;2.10;99.90;;;;;;5033023;28;20029;-76
2021/03/28 03:24:13;;;;;;;9.10;6.07;;;2.00;99.90;;;;;;5034106;28;20033;-76
2021/03/28 03:27:09;;;;;;;13.93;8.85;;;2.00;99.90;;;;;;5034116;28;20030;-76
2021/03/28 03:29:57;;;;;;;13.85;8.75;;;2.00;99.90;;;;;;5033999;28;20022;-74
2021/03/28 03:32:33;;;;;;;11.85;7.25;;;2.00;99.90;;;;;;5033938;28;20895;-75
2021/03/28 03:35:26;;;;;;;21.83;11.18;;;1.90;99.90;;;;;;5035055;28;20430;-75
2021/03/28 03:38:20;;;;;;;18.27;9.52;;;1.90;99.90;;;;;;5033988;28;20427;-74
2021/03/28 03:41:03;;;;;;;16.48;8.07;;;1.90;99.90;;;;;;5035128;28;20490;-74
2021/03/28 03:44:08;;;;;;;13.73;8.13;;;1.90;99.90;;;;;;5035062;28;20021;-74
2021/03/28 03:46:40;;;;;;;14.48;7.88;;;1.90;99.90;;;;;;5035010;28;20071;-74
2021/03/28 03:49:29;;;;;;;12.20;7.50;;;1.90;99.90;;;;;;5033787;28;20033;-74
2021/03/28 03:52:10;;;;;;;11.38;7.50;;;1.80;99.90;;;;;;5033623;28;20021;-74
2021/03/28 03:55:12;;;;;;;16.08;8.90;;;1.80;99.90;;;;;;5034770;28;20494;-74
2021/03/28 03:57:48;;;;;;;15.60;8.80;;;1.70;99.90;;;;;;5034339;28;20457;-74
2021/03/28 04:00:26;;;;;;;14.15;8.40;;;1.70;99.90;;;;;;5031645;28;20104;-74
2021/03/28 04:03:09;;;;;;;13.38;6.88;;;1.70;99.90;;;;;;5033261;28;20033;-74
2021/03/28 04:05:44;;;;;;;15.43;7.70;;;1.60;99.90;;;;;;5034713;28;20026;-74
2021/03/28 04:08:37;;;;;;;10.93;7.47;;;1.60;99.90;;;;;;5034648;28;20025;-74
2021/03/28 04:11:03;;;;;;;;;;;1.70;99.90;;;;;;5033779;28;20461;-75
2021/03/28 04:13:28;;;;;;;11.63;7.45;;;1.60;99.90;;;;;;5033220;28;19920;-75
2021/03/28 04:16:10;;;;;;;13.77;7.78;;;1.60;99.90;;;;;;5033259;28;20033;-75
2021/03/28 04:19:14;;;;;;;13.15;8.02;;;1.70;99.90;;;;;;5033951;28;20033;-74
2021/03/28 04:22:04;;;;;;;11.10;7.03;;;1.60;99.90;;;;;;5032822;28;20038;-74
2021/03/28 04:24:37;;;;;;;14.20;8.27;;;1.60;99.90;;;;;;5034319;28;20026;-74
2021/03/28 04:27:30;;;;;;;13.23;8.15;;;1.60;99.90;;;;;;5033542;28;20017;-74
2021/03/28 04:29:56;;;;;;;14.75;7.43;;;1.60;99.90;;;;;;5034317;28;20027;-75
2021/03/28 04:32:24;;;;;;;17.67;8.25;;;1.60;99.90;;;;;;5032901;28;20108;-76
2021/03/28 04:35:22;;;;;;;11.13;6.88;;;1.50;99.90;;;;;;5034108;28;20033;-75
2021/03/28 04:38:16;;;;;;;14.30;7.90;;;1.60;99.90;;;;;;5032773;28;20122;-75
2021/03/28 04:41:03;;;;;;;11.23;7.90;;;1.60;99.90;;;;;;5032794;28;20033;-75
2021/03/28 04:43:58;;;;;;;13.52;6.68;;;1.60;99.90;;;;;;5032710;28;20423;-75
2021/03/28 04:46:43;;;;;;;14.30;7.22;;;1.60;99.90;;;;;;5030291;28;20037;-75
2021/03/28 04:49:49;;;;;;;17.30;8.05;;;1.70;99.90;;;;;;5040456;28;20032;-74
2021/03/28 04:52:40;;;;;;;12.90;7.63;;;1.70;99.90;;;;;;5042276;28;20475;-75
2021/03/28 04:55:42;;;;;;;15.32;9.20;;;1.70;99.90;;;;;;5041672;28;20045;-74
2021/03/28 04:58:42;;;;;;;14.20;7.15;;;1.70;99.90;;;;;;5043277;28;20069;-75
2021/03/28 05:01:19;;;;;;;14.48;7.20;;;1.80;99.90;;;;;;5052246;28;20385;-75
2021/03/28 05:04:22;;;;;;;11.68;8.27;;;1.80;99.90;;;;;;5053626;28;20028;-75
2021/03/28 05:07:13;;;;;;;14.52;8.23;;;1.80;99.90;;;;;;5052252;28;20557;-74
2021/03/28 05:10:03;;;;;;;15.27;7.30;;;1.80;99.90;;;;;;5053373;28;20025;-75
2021/03/28 05:12:51;;;;;;;15.38;10.52;;;1.90;99.90;;;;;;5053310;28;20112;-75
2021/03/28 05:15:45;;;;;;;20.10;10.07;;;2.00;99.90;;;;;;5053251;28;20041;-74
2021/03/28 05:18:16;;;;;;;13.60;8.32;;;2.00;99.90;;;;;;5051806;28;20074;-74
2021/03/28 05:21:06;;;;;;;14.02;8.13;;;2.00;99.90;;;;;;5051834;28;20017;-74
2021/03/28 05:23:56;;;;;;;13.27;7.47;;;2.00;99.90;;;;;;5051738;28;20060;-76
2021/03/28 05:26:49;;;;;;;20.10;9.30;;;2.00;99.90;;;;;;5053112;28;20021;-75
2021/03/28 05:29:21;;;;;;;16.25;8.80;;;2.00;99.90;;;;;;5052908;28;20024;-75
2021/03/28 05:32:15;;;;;;;21.50;9.13;;;2.10;99.90;;;;;;5051342;28;20033;-75
2021/03/28 05:35:02;;;;;;;13.73;6.72;;;2.10;99.90;;;;;;5052783;28;20079;-74
2021/03/28 05:37:45;;;;;;;12.98;7.07;;;2.20;99.90;;;;;;5051315;28;20063;-75
2021/03/28 05:40:26;;;;;;;10.27;6.65;;;2.30;99.90;;;;;;5051650;28;20040;-75
2021/03/28 05:43:30;;;;;;;14.60;6.88;;;2.40;99.90;;;;;;5053018;28;20386;-75
2021/03/28 05:46:28;;;;;;;11.90;6.72;;;2.60;99.90;;;;;;5049687;28;20124;-75
2021/03/28 05:49:31;;;;;;;14.20;6.30;;;2.80;99.90;;;;;;5051462;28;20033;-75
2021/03/28 05:52:02;;;;;;;10.40;6.45;;;2.80;99.90;;;;;;5051628;28;20048;-76
2021/03/28 05:54:31;;;;;;;12.10;7.00;;;2.70;99.90;;;;;;5050748;28;20047;-75
2021/03/28 05:57:36;;;;;;;11.30;6.03;;;2.70;99.90;;;;;;5051387;28;20017;-75
2021/03/28 06:00:14;;;;;;;12.70;6.47;;;2.70;99.90;;;;;;5047702;28;20025;-76
2021/03/28 06:03:17;;;;;;;11.45;7.22;;;2.70;99.90;;;;;;5047495;28;20059;-75
2021/03/28 06:06:11;;;;;;;11.70;6.55;;;2.70;99.90;;;;;;5046305;28;20035;-75
2021/03/28 06:09:09;;;;;;;12.45;6.22;;;2.80;99.90;;;;;;5039777;28;20513;-75
2021/03/28 06:11:48;;;;;;;11.15;6.13;;;2.70;99.90;;;;;;5046320;28;20131;-76
2021/03/28 06:14:29;;;;;;;15.43;6.93;;;2.70;99.90;;;;;;5049537;28;20044;-75
2021/03/28 06:17:31;;;;;;;10.93;6.28;;;2.80;99.90;;;;;;5048642;28;20227;-76
2021/03/28 06:20:19;;;;;;;9.30;5.72;;;2.70;99.90;;;;;;5049017;28;20021;-76
2021/03/28 06:23:22;;;;;;;10.90;6.72;;;2.70;99.90;;;;;;5051019;28;20025;-76
2021/03/28 06:26:09;;;;;;;13.07;6.88;;;2.60;99.90;;;;;;5047371;28;20051;-76
2021/03/28 06:29:08;;;;;;;15.30;7.25;;;2.60;99.90;;;;;;5049228;28;20044;-75
2021/03/28 06:31:55;;;;;;;10.32;6.90;;;2.70;99.90;;;;;;5047007;28;20040;-75
2021/03/28 06:34:38;;;;;;;11.32;6.78;;;2.80;99.90;;;;;;5046996;28;20040;-75
2021/03/28 06:37:35;;;;;;;12.02;6.60;;;3.10;99.90;;;;;;5045433;28;20057;-76
2021/03/28 06:40:39;;;;;;;13.75;6.10;;;3.20;99.90;;;;;;5047794;28;20029;-74
2021/03/28 06:43:41;;;;;;;14.65;8.27;;;3.20;99.90;;;;;;5049953;28;20025;-75
2021/03/28 06:46:45;;;;;;;16.77;8.18;;;3.30;99.90;;;;;;5051718;28;20029;-75
2021/03/28 06:49:37;;;;;;;39.25;14.02;;;3.30;99.90;;;;;;5043855;28;20055;-75
2021/03/28 06:52:11;;;;;;;388.50;138.20;;;3.40;99.90;;;;;;5045923;28;20466;-76
2021/03/28 06:55:01;;;;;;;691.13;268.33;;;3.50;99.90;;;;;;5052355;28;20966;-74
2021/03/28 06:58:04;;;;;;;1004.95;398.05;;;3.50;99.90;;;;;;5048905;28;20100;-75
2021/03/28 07:00:59;;;;;;;288.02;91.68;;;3.50;99.70;;;;;;5049721;28;20025;-75
2021/03/28 07:03:55;;;;;;;658.83;237.68;;;3.60;99.00;;;;;;5051934;28;20165;-74
2021/03/28 07:06:43;;;;;;;267.42;69.22;;;3.50;95.50;;;;;;5053682;28;20021;-74
2021/03/28 07:09:44;;;;;;;116.57;31.77;;;3.50;96.50;;;;;;5054741;28;20025;-74
2021/03/28 07:12:42;;;;;;;25.88;12.32;;;3.50;93.40;;;;;;5055545;28;20470;-74
2021/03/28 07:15:23;;;;;;;16.35;9.82;;;3.70;95.20;;;;;;5048623;28;20506;-73
2021/03/28 07:18:22;;;;;;;46.20;17.33;;;3.70;89.70;;;;;;5039740;28;20036;-74
2021/03/28 07:21:01;;;;;;;44.45;16.77;;;4.00;93.20;;;;;;5040591;28;20513;-74
2021/03/28 07:23:44;;;;;;;26.45;12.40;;;4.10;94.50;;;;;;5056476;28;20078;-73
2021/03/28 07:26:47;;;;;;;217.38;81.85;;;4.10;90.50;;;;;;5054697;28;20032;-74
2021/03/28 07:29:35;;;;;;;321.90;111.28;;;4.20;89.00;;;;;;5045030;28;20621;-74
2021/03/28 07:32:29;;;;;;;23.38;10.82;;;4.20;90.00;;;;;;5053057;28;20079;-74
2021/03/28 07:35:26;;;;;;;141.43;41.92;;;4.10;86.10;;;;;;5053869;28;20488;-74
2021/03/28 07:38:40;;;;;;;110.22;30.17;;;4.20;83.90;;;;;;5054565;28;20489;-75
2021/03/28 07:41:53;;;;;;;90.40;26.90;;;4.30;83.40;;;;;;5044419;28;20037;-75
2021/03/28 07:44:46;;;;;;;27.50;12.30;;;4.80;86.90;;;;;;5032099;28;20423;-75
2021/03/28 07:47:24;;;;;;;27.00;12.07;;;4.80;83.70;;;;;;5031998;28;20037;-75
2021/03/28 07:50:26;;;;;;;68.00;23.83;;;4.70;81.70;;;;;;5049633;28;20041;-74
2021/03/28 07:53:17;;;;;;;76.10;23.55;;;4.60;85.20;;;;;;5053217;28;20033;-76
2021/03/28 07:56:14;;;;;;;259.05;92.88;;;4.50;81.00;;;;;;5054806;28;20052;-75
2021/03/28 07:58:45;;;;;;;164.85;62.33;;;4.50;83.20;;;;;;5050617;28;20065;-74
2021/03/28 08:01:43;;;;;;;70.28;23.77;;;4.60;80.90;;;;;;5054695;28;20025;-75
2021/03/28 08:04:20;;;;;;;78.82;24.02;;;4.90;82.20;;;;;;5046273;28;20036;-74
2021/03/28 08:07:05;;;;;;;51.30;17.27;;;4.90;79.70;;;;;;5054695;28;20083;-75
2021/03/28 08:10:20;;;;;;;68.57;20.67;;;4.80;76.10;;;;;;5054561;28;20493;-74
2021/03/28 08:13:04;;;;;;;25.35;8.80;;;4.90;77.70;;;;;;5032601;28;20501;-74
2021/03/28 08:16:01;;;;;;;64.88;17.75;;;5.10;76.00;;;;;;5032310;28;20041;-75
2021/03/28 08:19:20;;;;;;;17.67;9.32;;;5.00;78.60;;;;;;5051592;28;20049;-75
2021/03/28 08:22:04;;;;;;;27.40;10.68;;;5.00;79.70;;;;;;5032455;28;20466;-75
2021/03/28 08:24:51;;;;;;;57.85;23.63;;;5.20;78.70;;;;;;5054296;28;20060;-74
2021/03/28 08:27:35;;;;;;;41.53;16.73;;;5.20;79.40;;;;;;5054141;28;20090;-75
2021/03/28 08:30:19;;;;;;;20.85;11.05;;;5.00;76.30;;;;;;5044553;28;20044;-74
2021/03/28 08:33:02;;;;;;;130.88;37.30;;;5.10;75.30;;;;;;5050581;28;20096;-75
2021/03/28 08:36:02;;;;;;;138.60;35.35;;;5.20;77.70;;;;;;5046079;28;20044;-75
2021/03/28 08:38:50;;;;;;;87.93;29.33;;;5.30;78.30;;;;;;5044721;28;20111;-75
2021/03/28 08:41:34;;;;;;;60.92;25.50;;;5.30;80.30;;;;;;5039676;28;20025;-74
2021/03/28 08:44:18;;;;;;;36.80;11.57;;;5.50;81.40;;;;;;5050045;28;20063;-76
2021/03/28 08:47:08;;;;;;;36.70;10.95;;;5.60;71.10;;;;;;5048744;28;20021;-75
2021/03/28 08:49:54;;;;;;;32.30;11.88;;;5.80;73.80;;;;;;5051979;28;20037;-75
2021/03/28 08:52:36;;;;;;;19.13;7.45;;;6.00;68.50;;;;;;5051811;28;20021;-76
2021/03/28 08:55:39;;;;;;;19.27;9.68;;;6.10;70.30;;;;;;5053566;28;20060;-76
2021/03/28 08:58:19;;;;;;;30.50;15.43;;;6.10;68.00;;;;;;5043180;28;20058;-76
2021/03/28 09:00:57;;;;;;;34.45;16.65;;;6.30;70.60;;;;;;5049134;28;20053;-78
2021/03/28 09:03:48;;;;;;;26.35;8.45;;;6.40;70.60;;;;;;5051431;28;20021;-77
2021/03/28 09:06:35;;;;;;;115.85;34.85;;;6.40;67.30;;;;;;5051964;28;20068;-78
2021/03/28 09:09:36;;;;;;;13.50;6.50;;;6.10;66.70;;;;;;5051293;28;20021;-77
2021/03/28 09:12:31;;;;;;;33.95;10.18;;;6.00;66.50;;;;;;5039807;28;20037;-77
2021/03/28 09:15:11;;;;;;;21.23;10.15;;;6.00;66.90;;;;;;5052568;28;20029;-77
2021/03/28 09:17:42;;;;;;;40.58;14.02;;;6.00;67.00;;;;;;5052566;28;20479;-76
2021/03/28 09:20:09;;;;;;;63.60;21.73;;;5.80;65.80;;;;;;5050996;28;20033;-76
2021/03/28 09:22:49;;;;;;;24.95;12.05;;;6.10;67.80;;;;;;5044023;28;20108;-76
2021/03/28 09:25:32;;;;;;;24.55;14.30;;;6.10;67.00;;;;;;5046699;28;20017;-76
2021/03/28 09:28:21;;;;;;;23.40;13.85;;;6.10;63.70;;;;;;5048737;28;20106;-76
2021/03/28 09:31:03;;;;;;;35.75;14.43;;;6.20;66.40;;;;;;5042087;28;20550;-76
2021/03/28 09:33:38;;;;;;;33.28;17.70;;;6.20;65.00;;;;;;5048848;28;20505;-75
2021/03/28 09:36:14;;;;;;;49.75;17.85;;;6.40;66.60;;;;;;5052175;28;20139;-75
2021/03/28 09:39:17;;;;;;;35.33;13.95;;;6.50;64.70;;;;;;5052221;28;20021;-75
2021/03/28 09:42:16;;;;;;;24.73;10.75;;;6.60;63.20;;;;;;5052310;28;20444;-77
2021/03/28 09:44:54;;;;;;;16.83;10.77;;;6.60;61.80;;;;;;5050817;28;20128;-76
2021/03/28 09:47:47;;;;;;;25.20;11.77;;;6.60;62.80;;;;;;5050923;28;20057;-77
2021/03/28 09:50:25;;;;;;;16.17;8.77;;;6.40;60.00;;;;;;5063646;28;20040;-75
2021/03/28 09:53:29;;;;;;;57.88;26.88;;;6.70;61.20;;;;;;5047772;28;20363;-76
2021/03/28 09:56:27;;;;;;;15.52;8.35;;;7.00;59.60;;;;;;5048621;28;20072;-75
2021/03/28 09:59:12;;;;;;;15.30;10.65;;;7.10;57.60;;;;;;5052069;28;20056;-75
2021/03/28 10:02:01;;;;;;;55.17;19.77;;;7.00;57.60;;;;;;5050822;28;20079;-76
2021/03/28 10:04:44;;;;;;;20.70;10.30;;;7.00;58.40;;;;;;5051999;28;20543;-76
2021/03/28 10:07:12;;;;;;;15.63;8.50;;;6.70;58.90;;;;;;5050304;28;20036;-76
2021/03/28 10:09:38;;;;;;;19.15;9.07;;;6.70;59.80;;;;;;5032740;28;20022;-76
2021/03/28 10:12:46;;;;;;;43.50;17.27;;;6.80;60.20;;;;;;5051237;28;20017;-76
2021/03/28 10:15:21;;;;;;;19.40;7.60;;;7.30;60.30;;;;;;5067829;28;20483;-76
2021/03/28 10:18:01;;;;;;;28.58;13.30;;;7.10;57.30;;;;;;5054035;28;20079;-76
2021/03/28 10:20:34;;;;;;;20.45;9.57;;;7.20;57.60;;;;;;5055187;28;20039;-76
2021/03/28 10:23:12;;;;;;;14.35;8.52;;;7.20;58.00;;;;;;5056779;28;20019;-76
2021/03/28 10:25:44;;;;;;;12.48;9.75;;;7.20;58.60;;;;;;5055087;28;20540;-76
2021/03/28 10:28:34;;;;;;;21.50;11.77;;;7.50;59.60;;;;;;5052052;28;20032;-76
2021/03/28 10:30:59;;;;;;;15.32;5.70;;;7.70;58.20;;;;;;5064964;28;20051;-75
2021/03/28 10:33:43;;;;;;;7.82;4.95;;;7.90;57.40;;;;;;5055234;28;20543;-76
2021/03/28 10:36:34;;;;;;;8.43;4.72;;;8.00;57.30;;;;;;5055618;28;20036;-76
2021/03/28 10:39:28;;;;;;;17.77;10.45;;;7.80;55.20;;;;;;5054271;28;20036;-76
2021/03/28 10:42:31;;;;;;;6.57;5.07;;;7.90;57.40;;;;;;5055626;28;20028;-76
2021/03/28 10:45:36;;;;;;;13.85;6.45;;;7.90;57.00;;;;;;5055518;28;20029;-75
2021/03/28 10:48:19;;;;;;;7.43;5.28;;;8.10;56.80;;;;;;5054074;28;20063;-76
2021/03/28 10:51:03;;;;;;;9.23;5.85;;;8.10;54.50;;;;;;5054173;28;20044;-76
2021/03/28 10:53:54;;;;;;;8.70;5.55;;;8.40;54.00;;;;;;5054016;28;20025;-77
2021/03/28 10:56:50;;;;;;;7.80;4.82;;;8.40;53.60;;;;;;5053999;28;20133;-77
2021/03/28 10:59:44;;;;;;;14.35;8.82;;;8.50;53.80;;;;;;5048399;28;20025;-76
2021/03/28 11:02:46;;;;;;;6.05;3.80;;;8.70;53.00;;;;;;5050519;28;20029;-76
2021/03/28 11:05:57;;;;;;;6.83;4.67;;;9.00;53.40;;;;;;5052078;28;20032;-76
2021/03/28 11:08:37;;;;;;;11.13;6.68;;;9.00;50.30;;;;;;5052723;28;20029;-76
2021/03/28 11:11:15;;;;;;;18.85;9.40;;;9.20;51.30;;;;;;5068030;28;20490;-76
2021/03/28 11:14:09;;;;;;;13.27;7.68;;;9.30;51.30;;;;;;5055405;28;20028;-76
2021/03/28 11:16:44;;;;;;;9.98;6.45;;;9.00;50.20;;;;;;5054222;28;20033;-78
2021/03/28 11:19:40;;;;;;;7.78;5.40;;;8.70;50.10;;;;;;5054041;28;20031;-76
2021/03/28 11:22:34;;;;;;;10.13;4.70;;;8.70;50.10;;;;;;5051851;28;20037;-77
2021/03/28 11:25:19;;;;;;;6.38;4.03;;;8.80;50.40;;;;;;5052003;28;20047;-77
2021/03/28 11:27:59;;;;;;;4.88;3.47;;;9.10;50.60;;;;;;5055233;28;20033;-76
2021/03/28 11:30:47;;;;;;;6.85;4.30;;;9.30;49.30;;;;;;5053778;28;20044;-77
2021/03/28 11:33:22;;;;;;;26.15;13.90;;;9.40;49.30;;;;;;5055179;28;20036;-77
2021/03/28 11:35:57;;;;;;;13.23;6.28;;;9.40;49.30;;;;;;5054555;28;20045;-76
2021/03/28 11:38:22;;;;;;;8.85;5.20;;;9.30;49.80;;;;;;5051130;28;20493;-77
2021/03/28 11:41:06;;;;;;;8.07;4.68;;;9.50;50.00;;;;;;5053087;28;20052;-76
2021/03/28 11:43:32;;;;;;;8.15;4.22;;;9.50;49.50;;;;;;5053784;28;20445;-78
2021/03/28 11:46:04;;;;;;;6.93;3.90;;;9.80;50.20;;;;;;5054634;28;20021;-77
2021/03/28 11:48:44;;;;;;;11.82;7.38;;;9.60;49.20;;;;;;5054922;28;20423;-79
2021/03/28 11:51:38;;;;;;;9.90;5.53;;;9.50;49.10;;;;;;5050949;28;20035;-79
2021/03/28 11:54:13;;;;;;;10.05;4.53;;;9.70;48.40;;;;;;5053376;28;20060;-79
2021/03/28 11:56:54;;;;;;;7.10;4.35;;;9.70;47.50;;;;;;5053414;28;20120;-79
2021/03/28 11:59:22;;;;;;;9.40;5.30;;;9.80;47.40;;;;;;5052029;28;20025;-77
2021/03/28 12:04:33;;;;;;;6.95;3.38;;;9.80;46.30;;;;;;5053601;28;20439;-76
2021/03/28 12:07:17;;;;;;;3.90;3.00;;;9.70;46.40;;;;;;5053365;28;20118;-76
2021/03/28 12:10:09;;;;;;;4.55;3.38;;;9.50;46.40;;;;;;5052078;28;20029;-76
2021/03/28 12:12:49;;;;;;;9.73;5.07;;;9.40;46.70;;;;;;5051367;28;20029;-77
2021/03/28 12:15:45;;;;;;;5.05;3.35;;;9.30;47.80;;;;;;5036086;28;20041;-77
2021/03/28 12:18:31;;;;;;;6.63;3.70;;;9.30;48.00;;;;;;5051421;28;20035;-77
2021/03/28 12:21:02;;;;;;;5.88;3.50;;;9.30;48.20;;;;;;5053063;28;20466;-77
2021/03/28 12:23:40;;;;;;;10.55;4.53;;;9.40;48.90;;;;;;5054257;28;20033;-77
2021/03/28 12:26:17;;;;;;;8.82;5.43;;;9.20;47.90;;;;;;5054228;28;20433;-77
2021/03/28 12:28:47;;;;;;;8.75;4.88;;;9.30;48.20;;;;;;5052288;28;20025;-77
2021/03/28 12:31:35;;;;;;;10.43;4.20;;;9.70;47.00;;;;;;5052272;28;20021;-77
2021/03/28 12:34:28;;;;;;;6.80;4.28;;;9.80;46.00;;;;;;5051949;28;20116;-78
2021/03/28 12:37:10;;;;;;;5.97;3.97;;;10.00;46.50;;;;;;5049242;28;20036;-77
2021/03/28 12:39:58;;;;;;;6.18;4.00;;;9.80;45.40;;;;;;5040378;28;20028;-77
2021/03/28 12:42:45;;;;;;;11.35;4.68;;;9.60;45.50;;;;;;5039732;28;20483;-77
2021/03/28 12:45:11;;;;;;;10.50;6.03;;;9.50;46.30;;;;;;5034920;28;20025;-78
2021/03/28 12:47:49;;;;;;;5.70;3.90;;;9.40;46.20;;;;;;5049318;28;20095;-77
2021/03/28 12:50:14;;;;;;;6.72;4.75;;;9.40;46.10;;;;;;5051103;28;20037;-77
2021/03/28 12:53:01;;;;;;;6.60;3.53;;;9.20;45.80;;;;;;5049113;28;20434;-78
2021/03/28 12:55:29;;;;;;;9.70;4.25;;;9.30;46.00;;;;;;5050569;28;20044;-76
2021/03/28 12:57:57;;;;;;;8.85;5.47;;;9.30;45.70;;;;;;5047279;28;20112;-76
2021/03/28 13:01:04;;;;;;;7.95;4.63;;;9.30;46.60;;;;;;5048813;28;20124;-77
2021/03/28 13:03:43;;;;;;;6.68;4.25;;;9.10;46.30;;;;;;5011377;28;20094;-77
2021/03/28 13:06:36;;;;;;;7.20;3.92;;;9.20;47.50;;;;;;5046558;28;20501;-77
2021/03/28 13:09:11;;;;;;;5.78;3.42;;;9.00;46.90;;;;;;5047320;28;20029;-77
2021/03/28 13:11:53;;;;;;;8.38;3.83;;;9.10;46.80;;;;;;5048650;28;20025;-77
2021/03/28 13:14:28;;;;;;;4.90;4.43;;;9.20;45.70;;;;;;5048595;28;20044;-76
2021/03/28 13:16:55;;;;;;;11.88;6.78;;;9.50;44.70;;;;;;5050484;28;20078;-77
2021/03/28 13:19:30;;;;;;;9.70;4.80;;;9.60;43.90;;;;;;5051879;28;20032;-76
2021/03/28 13:22:02;;;;;;;6.50;4.05;;;9.70;43.90;;;;;;5050021;28;20017;-77
2021/03/28 13:24:29;;;;;;;5.88;4.60;;;9.70;44.00;;;;;;5051814;28;20029;-77
2021/03/28 13:27:03;;;;;;;10.57;6.70;;;9.70;43.80;;;;;;5053102;28;20029;-77
2021/03/28 13:29:37;;;;;;;16.88;8.07;;;9.70;44.10;;;;;;5050065;28;20021;-77
2021/03/28 13:32:25;;;;;;;10.48;4.63;;;9.80;43.90;;;;;;5051471;28;20021;-77
2021/03/28 13:34:56;;;;;;;5.95;4.05;;;9.90;44.50;;;;;;5044589;28;20040;-77
2021/03/28 13:37:27;;;;;;;8.77;5.43;;;10.00;44.60;;;;;;5049621;28;20028;-78
2021/03/28 13:40:20;;;;;;;9.18;5.35;;;10.10;44.30;;;;;;5049168;28;20017;-78
2021/03/28 13:42:55;;;;;;;;;;;10.00;43.30;;;;;;5046145;28;20359;-78
2021/03/28 13:45:32;;;;;;;64.80;23.10;;;9.90;43.90;;;;;;5050161;28;19908;-78
2021/03/28 13:47:59;;;;;;;46.85;19.30;;;9.90;43.90;;;;;;5034311;28;20383;-77
2021/03/28 13:51:01;;;;;;;10.75;6.28;;;9.60;43.60;;;;;;5042293;28;20028;-77
2021/03/28 13:53:35;;;;;;;59.05;22.27;;;9.60;44.30;;;;;;5034630;28;20044;-77
2021/03/28 13:56:10;;;;;;;49.30;18.58;;;9.40;44.60;;;;;;5064052;28;20033;-77
2021/03/28 13:58:39;;;;;;;66.07;19.08;;;9.40;44.70;;;;;;5046935;28;20025;-77
2021/03/28 14:01:25;;;;;;;139.23;40.30;;;9.40;44.90;;;;;;5044864;28;20034;-77
2021/03/28 14:04:15;;;;;;;127.53;43.38;;;9.40;45.20;;;;;;5047922;28;20101;-77
2021/03/28 14:06:42;;;;;;;14.02;7.00;;;9.70;44.90;;;;;;5042625;28;20629;-76
2021/03/28 14:09:18;;;;;;;12.25;7.03;;;9.80;42.40;;;;;;5031405;28;20024;-78
2021/03/28 14:11:46;;;;;;;417.30;146.05;;;9.90;41.90;;;;;;5032721;28;20471;-79
2021/03/28 14:14:21;;;;;;;312.58;112.20;;;9.90;41.30;;;;;;5032239;28;20033;-81
2021/03/28 14:16:49;;;;;;;25.27;9.77;;;10.00;40.10;;;;;;5047954;28;20026;-79
2021/03/28 14:19:32;;;;;;;15.18;5.60;;;10.20;40.40;;;;;;5031860;28;20095;-78